Accueil
METAR-TAF:

METAR-TAF

Aéroports :

Plate-forme pétrolière

Ula, Norvège

latitude: 59-06-39N, longitude: 2-50-45E, altitude: 0 m

Observation

Le bulletin a été fait il y a 41 minutes, à 14:50 UTC
Vent 20 kt de sud/sud-ouest
Température 10°C
Humidité 87%
Pression 1018 hPa
Visibilité 10 km ou plus

METAR: ENLA 121450Z AUTO 21020KT 9999NDV SCT100/// 10/08 Q1018 W///S4

Heure: 17:31 (15:31 UTC)


TAF: absent

Observations et prévisions météorologiques de plus de 4000 aéroports (messages METAR et TAF).

Les stations disponibles sont représentées par des disques jaunes et rouges sur la carte.

Passer la souris dessus pour voir le nom de la station.

Cliquer dessus pour voir les observations et prévisions météorologiques.

Pour changer de carte: cliquez sur les boutons verts avec une croix noire pour zoomer, sur le bouton vert avec un tiret pour effectuer un zoom arrière, ou sur les flèches vertes pour les cartes adjacentes.


METAR-TAF: